createdAt,value
2018-12-01T00:00:55.271Z,5.53
2018-12-01T00:03:25.081Z,4.83
2018-12-01T00:05:55.879Z,5.70
2018-12-01T00:08:25.767Z,5.17
2018-12-01T00:10:56.329Z,6.57
2018-12-01T00:13:26.112Z,5.53
2018-12-01T00:15:56.191Z,5.33
2018-12-01T00:18:26.015Z,5.80
2018-12-01T00:20:55.756Z,5.07
2018-12-01T00:23:25.561Z,5.87
2018-12-01T00:25:55.347Z,5.20
2018-12-01T00:28:25.261Z,5.77
2018-12-01T00:30:55.135Z,5.77
2018-12-01T00:33:24.938Z,5.60
2018-12-01T00:35:54.714Z,5.47
2018-12-01T00:38:24.433Z,5.33
2018-12-01T00:40:54.209Z,5.57
2018-12-01T00:43:24.125Z,4.63
2018-12-01T00:45:53.962Z,5.67
2018-12-01T00:48:23.861Z,4.77
2018-12-01T00:50:53.585Z,4.53
2018-12-01T00:53:23.813Z,4.50
2018-12-01T00:55:54.346Z,4.83
2018-12-01T00:58:24.362Z,4.83
2018-12-01T01:00:54.468Z,4.30
2018-12-01T01:03:24.262Z,4.60
2018-12-01T01:05:54.156Z,4.30
2018-12-01T01:08:24.006Z,4.67
2018-12-01T01:10:54.081Z,3.80
2018-12-01T01:13:23.979Z,3.80
2018-12-01T01:15:53.784Z,4.10
2018-12-01T01:18:23.572Z,3.67
2018-12-01T01:20:53.569Z,4.30
2018-12-01T01:23:23.396Z,3.90
2018-12-01T01:25:53.475Z,4.47
2018-12-01T01:28:23.523Z,4.17
2018-12-01T01:30:54.710Z,3.63
2018-12-01T01:33:30.438Z,4.20
2018-12-01T01:36:00.341Z,4.70
2018-12-01T01:38:30.162Z,3.80
2018-12-01T01:41:05.237Z,3.87
2018-12-01T01:43:35.428Z,3.50
2018-12-01T01:46:07.191Z,3.97
2018-12-01T01:48:36.966Z,3.97
2018-12-01T01:51:07.109Z,3.97
2018-12-01T01:53:36.799Z,3.97
2018-12-01T01:56:07.241Z,4.03
2018-12-01T01:58:36.952Z,4.50
2018-12-01T02:01:06.890Z,3.57
2018-12-01T02:03:36.880Z,3.73
2018-12-01T02:06:07.253Z,4.03
2018-12-01T02:08:36.996Z,3.60
2018-12-01T02:11:07.379Z,3.20
2018-12-01T02:13:37.020Z,3.93
2018-12-01T02:16:07.181Z,3.70
2018-12-01T02:18:36.894Z,3.87
2018-12-01T02:21:07.572Z,3.67
2018-12-01T02:23:37.329Z,3.07
2018-12-01T02:26:07.143Z,3.30
2018-12-01T02:28:37.362Z,3.70
2018-12-01T02:31:07.642Z,3.27
2018-12-01T02:33:37.380Z,3.33
2018-12-01T02:36:07.380Z,3.60
2018-12-01T02:38:37.154Z,3.27
2018-12-01T02:41:07.097Z,3.73
2018-12-01T02:43:37.776Z,4.20
2018-12-01T02:46:24.549Z,3.57
2018-12-01T02:48:54.417Z,3.67
2018-12-01T02:51:24.337Z,3.77
2018-12-01T02:53:54.021Z,3.00
2018-12-01T02:56:24.617Z,2.97
2018-12-01T02:58:54.675Z,3.10
2018-12-01T03:01:24.536Z,3.43
2018-12-01T03:03:54.406Z,3.37
2018-12-01T03:06:24.068Z,3.90
2018-12-01T03:08:53.900Z,3.50
2018-12-01T03:11:23.692Z,3.83
2018-12-01T03:13:53.443Z,3.37
2018-12-01T03:16:23.527Z,3.23
2018-12-01T03:18:53.289Z,3.83
2018-12-01T03:21:22.995Z,3.33
2018-12-01T03:23:52.901Z,3.40
2018-12-01T03:26:22.770Z,4.90
2018-12-01T03:28:52.461Z,3.60
2018-12-01T03:31:22.241Z,3.73
2018-12-01T03:33:51.937Z,3.40
2018-12-01T03:36:22.372Z,3.47
2018-12-01T03:38:52.093Z,3.10
2018-12-01T03:41:21.997Z,3.13
2018-12-01T03:43:51.829Z,3.43
2018-12-01T03:46:21.513Z,3.90
2018-12-01T03:48:51.832Z,3.27
2018-12-01T03:51:21.544Z,3.43
2018-12-01T03:53:51.529Z,3.90
2018-12-01T03:56:21.241Z,3.50
2018-12-01T03:58:50.980Z,3.10
2018-12-01T04:01:21.456Z,4.10
2018-12-01T04:03:51.379Z,3.83
2018-12-01T04:06:21.100Z,3.47
2018-12-01T04:08:50.923Z,3.33
2018-12-01T04:11:20.972Z,4.23
2018-12-01T04:13:50.667Z,3.30
2018-12-01T04:16:20.405Z,3.83
2018-12-01T04:18:50.132Z,4.10
2018-12-01T04:21:20.432Z,3.37
2018-12-01T04:23:50.260Z,3.73
2018-12-01T04:26:19.948Z,3.60
2018-12-01T04:28:49.750Z,3.20
2018-12-01T04:31:19.484Z,3.80
2018-12-01T04:33:49.332Z,3.73
2018-12-01T04:36:19.124Z,4.30
2018-12-01T04:38:49.039Z,4.47
2018-12-01T04:41:18.773Z,3.87
2018-12-01T04:43:48.500Z,4.60
2018-12-01T04:46:18.465Z,4.10
2018-12-01T04:48:48.156Z,4.10
2018-12-01T04:51:17.842Z,3.10
2018-12-01T04:53:47.817Z,3.47
2018-12-01T04:56:17.593Z,3.63
2018-12-01T04:58:47.464Z,4.03
2018-12-01T05:01:17.336Z,4.10
2018-12-01T05:03:47.313Z,3.57
2018-12-01T05:06:17.097Z,3.83
2018-12-01T05:08:46.785Z,3.57
2018-12-01T05:11:16.503Z,4.00
2018-12-01T05:13:46.257Z,3.50
2018-12-01T05:16:16.225Z,3.53
2018-12-01T05:18:45.937Z,4.30
2018-12-01T05:21:15.597Z,4.00
2018-12-01T05:23:45.548Z,3.70
2018-12-01T05:26:15.201Z,3.53
2018-12-01T05:28:45.075Z,3.67
2018-12-01T05:31:14.993Z,4.30
2018-12-01T05:33:44.691Z,3.67
2018-12-01T05:36:14.517Z,3.70
2018-12-01T05:38:44.208Z,3.70
2018-12-01T05:41:13.936Z,3.17
2018-12-01T05:43:44.688Z,4.17
2018-12-01T05:46:14.593Z,3.73
2018-12-01T05:48:44.477Z,3.30
2018-12-01T05:51:14.508Z,3.10
2018-12-01T05:53:44.348Z,3.53
2018-12-01T05:56:14.285Z,3.07
2018-12-01T05:58:44.064Z,4.17
2018-12-01T06:01:13.864Z,3.80
2018-12-01T06:03:43.615Z,3.77
2018-12-01T06:06:13.296Z,3.30
2018-12-01T06:08:43.277Z,3.80
2018-12-01T06:11:13.340Z,3.90
2018-12-01T06:13:44.061Z,3.57
2018-12-01T06:16:13.857Z,3.57
2018-12-01T06:18:43.801Z,3.10
2018-12-01T06:21:13.598Z,3.30
2018-12-01T06:23:43.730Z,3.07
2018-12-01T06:26:13.556Z,2.80
2018-12-01T06:28:43.268Z,3.40
2018-12-01T06:31:12.992Z,3.20
2018-12-01T06:33:42.933Z,3.20
2018-12-01T06:36:12.722Z,3.47
2018-12-01T06:38:42.491Z,3.97
2018-12-01T06:41:12.193Z,3.77
2018-12-01T06:43:42.024Z,4.03
2018-12-01T06:46:11.780Z,3.13
2018-12-01T06:48:41.665Z,3.73
2018-12-01T06:51:11.554Z,4.03
2018-12-01T06:53:41.542Z,3.93
2018-12-01T06:56:11.490Z,3.70
2018-12-01T06:58:42.004Z,3.70
2018-12-01T07:01:11.848Z,3.40
2018-12-01T07:03:41.572Z,4.07
2018-12-01T07:06:11.336Z,3.47
2018-12-01T07:08:41.243Z,4.17
2018-12-01T07:11:11.160Z,4.10
2018-12-01T07:13:41.261Z,3.57
2018-12-01T07:16:10.997Z,4.40
2018-12-01T07:18:57.630Z,3.63
2018-12-01T07:21:27.316Z,4.13
2018-12-01T07:23:57.101Z,3.80
2018-12-01T07:26:26.870Z,3.73
2018-12-01T07:28:57.452Z,3.47
2018-12-01T07:31:27.189Z,3.73
2018-12-01T07:33:57.086Z,4.27
2018-12-01T07:36:27.052Z,4.03
2018-12-01T07:38:57.429Z,4.57
2018-12-01T07:41:27.198Z,3.87
2018-12-01T07:43:57.637Z,4.20
2018-12-01T07:46:27.408Z,3.90
2018-12-01T07:48:57.181Z,3.83
2018-12-01T07:51:27.113Z,3.93
2018-12-01T07:53:56.881Z,3.87
2018-12-01T07:56:26.771Z,5.13
2018-12-01T07:58:56.628Z,4.40
2018-12-01T08:01:26.406Z,4.20
2018-12-01T08:03:56.329Z,3.90
2018-12-01T08:06:26.133Z,4.50
2018-12-01T08:08:55.833Z,4.40
2018-12-01T08:11:25.625Z,4.30
2018-12-01T08:13:55.442Z,4.60
2018-12-01T08:16:25.414Z,4.13
2018-12-01T08:18:55.236Z,4.23
2018-12-01T08:21:25.137Z,3.97
2018-12-01T08:23:55.049Z,4.63
2018-12-01T08:26:25.835Z,4.70
2018-12-01T08:28:55.563Z,3.90
2018-12-01T08:31:25.359Z,4.10
2018-12-01T08:33:55.328Z,4.17
2018-12-01T08:36:25.526Z,4.17
2018-12-01T08:38:55.343Z,4.00
2018-12-01T08:41:25.173Z,4.63
2018-12-01T08:43:55.117Z,4.10
2018-12-01T08:46:24.865Z,5.10
2018-12-01T08:48:54.817Z,4.30
2018-12-01T08:51:24.742Z,4.30
2018-12-01T08:53:54.557Z,4.50
2018-12-01T08:56:24.360Z,4.93
2018-12-01T08:58:54.307Z,4.10
2018-12-01T09:01:24.183Z,4.20
2018-12-01T09:03:54.685Z,4.67
2018-12-01T09:06:24.521Z,4.23
2018-12-01T09:08:54.449Z,3.80
2018-12-01T09:11:24.274Z,4.83
2018-12-01T09:13:54.263Z,4.30
2018-12-01T09:16:24.566Z,4.63
2018-12-01T09:18:54.556Z,5.07
2018-12-01T09:21:25.023Z,4.07
2018-12-01T09:23:54.737Z,4.90
2018-12-01T09:26:24.551Z,4.23
2018-12-01T09:28:54.344Z,4.47
2018-12-01T09:31:24.160Z,4.60
2018-12-01T09:33:53.966Z,4.63
2018-12-01T09:36:23.788Z,4.57
2018-12-01T09:38:53.598Z,4.23
2018-12-01T09:41:23.345Z,4.57
2018-12-01T09:43:53.130Z,4.80
2018-12-01T09:46:23.207Z,4.87
2018-12-01T09:48:52.915Z,4.43
2018-12-01T09:51:22.621Z,4.53
2018-12-01T09:53:53.176Z,5.53
2018-12-01T09:56:22.861Z,4.77
2018-12-01T09:58:53.118Z,4.87
2018-12-01T10:01:23.038Z,4.57
2018-12-01T10:03:53.474Z,4.63
2018-12-01T10:06:23.271Z,4.77
2018-12-01T10:08:53.146Z,4.43
2018-12-01T10:11:22.897Z,4.23
2018-12-01T10:13:52.841Z,5.27
2018-12-01T10:16:22.680Z,4.67
2018-12-01T10:18:56.473Z,4.53
2018-12-01T10:21:22.183Z,4.90
2018-12-01T10:23:51.937Z,4.23
2018-12-01T10:26:21.673Z,4.27
2018-12-01T10:28:51.518Z,3.53
2018-12-01T10:31:21.515Z,4.20
2018-12-01T10:33:51.302Z,3.83
2018-12-01T10:36:21.194Z,4.10
2018-12-01T10:38:50.952Z,3.90
2018-12-01T10:41:20.817Z,3.83
2018-12-01T10:43:50.650Z,3.97
2018-12-01T10:46:20.773Z,3.90
2018-12-01T10:48:50.597Z,4.23
2018-12-01T10:51:20.408Z,3.83
2018-12-01T10:53:50.428Z,3.60
2018-12-01T10:56:20.437Z,3.83
2018-12-01T10:58:50.229Z,3.73
2018-12-01T11:01:25.159Z,3.70
2018-12-01T11:03:55.647Z,3.97
2018-12-01T11:06:25.619Z,3.70
2018-12-01T11:08:55.669Z,3.57
2018-12-01T11:11:25.466Z,3.47
2018-12-01T11:13:55.213Z,3.57
2018-12-01T11:16:25.279Z,3.77
2018-12-01T11:18:55.150Z,3.83
2018-12-01T11:21:25.129Z,3.40
2018-12-01T11:23:55.005Z,3.40
2018-12-01T11:26:24.791Z,3.70
2018-12-01T11:28:54.734Z,3.47
2018-12-01T11:31:25.213Z,3.33
2018-12-01T11:33:55.157Z,3.73
2018-12-01T11:36:25.025Z,3.40
2018-12-01T11:38:54.808Z,3.57
2018-12-01T11:41:24.560Z,3.10
2018-12-01T11:43:54.490Z,3.53
2018-12-01T11:46:24.541Z,3.37
2018-12-01T11:48:54.438Z,3.23
2018-12-01T11:51:24.637Z,3.10
2018-12-01T11:53:54.971Z,3.43
2018-12-01T11:56:24.932Z,3.03
2018-12-01T11:58:54.742Z,2.90
2018-12-01T12:01:24.624Z,2.93
2018-12-01T12:03:54.627Z,2.47
2018-12-01T12:06:24.587Z,2.90
2018-12-01T12:08:55.447Z,2.60
2018-12-01T12:11:25.401Z,2.83
2018-12-01T12:13:55.235Z,2.53
2018-12-01T12:16:25.053Z,2.73
2018-12-01T12:18:54.925Z,2.67
2018-12-01T12:21:24.806Z,2.37
2018-12-01T12:23:54.849Z,2.77
2018-12-01T12:26:24.568Z,2.60
2018-12-01T12:28:54.316Z,2.53
2018-12-01T12:31:24.223Z,2.50
2018-12-01T12:33:54.261Z,2.77
2018-12-01T12:36:24.084Z,2.70
2018-12-01T12:38:54.088Z,2.37
2018-12-01T12:41:23.855Z,2.27
2018-12-01T12:43:53.868Z,2.30
2018-12-01T12:46:23.696Z,2.50
2018-12-01T12:48:53.518Z,2.30
2018-12-01T12:51:24.005Z,2.77
2018-12-01T12:53:53.913Z,2.40
2018-12-01T12:56:23.720Z,2.53
2018-12-01T12:58:53.597Z,2.23
2018-12-01T13:01:23.431Z,2.43
2018-12-01T13:03:53.585Z,2.30
2018-12-01T13:06:23.529Z,2.47
2018-12-01T13:08:53.677Z,2.00
2018-12-01T13:11:24.114Z,2.27
2018-12-01T13:13:54.614Z,2.00
2018-12-01T13:16:24.549Z,1.90
2018-12-01T13:18:55.130Z,2.20
2018-12-01T13:21:25.047Z,2.10
2018-12-01T13:23:54.884Z,2.40
2018-12-01T13:26:25.441Z,2.20
2018-12-01T13:28:55.207Z,1.87
2018-12-01T13:31:25.004Z,2.23
2018-12-01T13:33:55.262Z,1.93
2018-12-01T13:36:25.033Z,1.90
2018-12-01T13:38:55.109Z,2.17
2018-12-01T13:41:24.946Z,2.00
2018-12-01T13:43:54.793Z,1.90
2018-12-01T13:46:24.935Z,1.97
2018-12-01T13:48:54.767Z,2.23
2018-12-01T13:51:24.679Z,1.87
2018-12-01T13:53:54.655Z,2.20
2018-12-01T13:56:24.565Z,1.90
2018-12-01T13:58:54.522Z,2.03
2018-12-01T14:01:25.033Z,1.90
2018-12-01T14:03:54.866Z,1.87
2018-12-01T14:06:25.459Z,1.60
2018-12-01T14:08:55.346Z,1.93
2018-12-01T14:11:25.157Z,1.93
2018-12-01T14:13:54.993Z,1.60
2018-12-01T14:16:24.729Z,1.40
2018-12-01T14:18:54.709Z,1.80
2018-12-01T14:21:24.742Z,1.53
2018-12-01T14:23:54.692Z,2.00
2018-12-01T14:26:24.701Z,2.10
2018-12-01T14:28:54.516Z,1.90
2018-12-01T14:31:24.230Z,1.70
2018-12-01T14:33:54.181Z,1.77
2018-12-01T14:36:23.980Z,2.70
2018-12-01T14:38:53.893Z,2.73
2018-12-01T14:41:23.652Z,2.00
2018-12-01T14:43:53.696Z,1.57
2018-12-01T14:46:23.841Z,2.10
2018-12-01T14:48:53.738Z,1.83
2018-12-01T14:51:23.537Z,2.00
2018-12-01T14:53:54.524Z,1.80
2018-12-01T14:56:24.600Z,2.17
2018-12-01T14:58:54.676Z,2.60
2018-12-01T15:01:24.560Z,1.90
2018-12-01T15:03:54.301Z,2.00
2018-12-01T15:06:24.259Z,2.03
2018-12-01T15:08:54.154Z,2.20
2018-12-01T15:11:23.971Z,1.87
2018-12-01T15:13:53.822Z,2.00
2018-12-01T15:16:23.828Z,1.83
2018-12-01T15:18:53.704Z,1.90
2018-12-01T15:21:23.417Z,2.03
2018-12-01T15:23:53.182Z,2.20
2018-12-01T15:26:23.104Z,2.30
2018-12-01T15:28:53.808Z,2.60
2018-12-01T15:31:23.788Z,2.20
2018-12-01T15:33:53.711Z,2.37
2018-12-01T15:36:23.609Z,2.00
2018-12-01T15:38:53.577Z,1.97
2018-12-01T15:41:23.524Z,2.80
2018-12-01T15:43:53.297Z,2.37
2018-12-01T15:46:23.258Z,2.47
2018-12-01T15:48:53.068Z,2.33
2018-12-01T15:51:22.941Z,2.00
2018-12-01T15:53:53.633Z,2.10
2018-12-01T15:56:23.393Z,2.70
2018-12-01T15:58:53.348Z,2.10
2018-12-01T16:01:23.184Z,2.20
2018-12-01T16:03:53.102Z,2.20
2018-12-01T16:06:22.876Z,2.90
2018-12-01T16:08:52.824Z,2.00
2018-12-01T16:11:22.640Z,2.30
2018-12-01T16:13:52.683Z,2.03
2018-12-01T16:16:22.721Z,2.50
2018-12-01T16:18:52.646Z,3.07
2018-12-01T16:21:22.505Z,2.67
2018-12-01T16:23:52.420Z,2.90
2018-12-01T16:26:22.722Z,3.00
2018-12-01T16:28:53.439Z,3.10
2018-12-01T16:31:23.362Z,2.60
2018-12-01T16:33:53.167Z,2.70
2018-12-01T16:36:23.446Z,2.60
2018-12-01T16:38:53.413Z,2.63
2018-12-01T16:41:31.177Z,2.40
2018-12-01T16:44:01.095Z,2.40
2018-12-01T16:46:30.877Z,2.80
2018-12-01T16:49:00.953Z,2.90
2018-12-01T16:51:30.852Z,3.13
2018-12-01T16:54:01.203Z,2.70
2018-12-01T16:56:31.353Z,3.10
2018-12-01T16:59:01.733Z,2.50
2018-12-01T17:01:31.497Z,2.63
2018-12-01T17:04:01.751Z,2.60
2018-12-01T17:06:31.784Z,3.03
2018-12-01T17:09:02.764Z,2.77
2018-12-01T17:11:32.659Z,3.40
2018-12-01T17:14:02.486Z,3.17
2018-12-01T17:16:32.608Z,2.57
2018-12-01T17:19:03.333Z,2.80
2018-12-01T17:21:33.152Z,2.63
2018-12-01T17:24:03.182Z,2.87
2018-12-01T17:26:33.627Z,2.77
2018-12-01T17:29:04.603Z,2.90
2018-12-01T17:31:34.532Z,2.70
2018-12-01T17:34:04.424Z,2.77
2018-12-01T17:36:34.666Z,2.43
2018-12-01T17:39:07.973Z,2.40
2018-12-01T17:41:37.854Z,2.50
2018-12-01T17:44:10.753Z,2.70
2018-12-01T17:46:40.661Z,2.27
2018-12-01T17:49:10.601Z,2.27
2018-12-01T17:51:41.085Z,2.53
2018-12-01T17:54:15.961Z,2.63
2018-12-01T17:56:45.873Z,2.40
2018-12-01T17:59:15.638Z,2.70
2018-12-01T18:01:46.071Z,2.47
2018-12-01T18:04:15.946Z,2.23
2018-12-01T18:06:45.844Z,2.30
2018-12-01T18:09:15.615Z,2.50
2018-12-01T18:11:45.616Z,2.90
2018-12-01T18:14:15.472Z,2.43
2018-12-01T18:16:45.488Z,3.10
2018-12-01T18:19:15.414Z,2.57
2018-12-01T18:21:45.233Z,2.80
2018-12-01T18:24:15.143Z,2.97
2018-12-01T18:26:45.067Z,2.47
2018-12-01T18:29:14.871Z,2.57
2018-12-01T18:31:45.049Z,2.43
2018-12-01T18:34:16.669Z,2.70
2018-12-01T18:36:46.702Z,2.50
2018-12-01T18:39:19.666Z,2.97
2018-12-01T18:41:49.781Z,2.20
2018-12-01T18:44:19.606Z,2.77
2018-12-01T18:46:49.646Z,2.33
2018-12-01T18:49:19.662Z,2.23
2018-12-01T18:51:49.531Z,2.63
2018-12-01T18:54:19.386Z,3.40
2018-12-01T18:56:49.266Z,2.50
2018-12-01T18:59:19.082Z,2.30
2018-12-01T19:01:51.784Z,2.60
2018-12-01T19:04:21.629Z,2.50
2018-12-01T19:06:51.350Z,2.57
2018-12-01T19:09:21.864Z,2.90
2018-12-01T19:11:51.912Z,2.73
2018-12-01T19:14:21.933Z,2.37
2018-12-01T19:16:51.756Z,2.37
2018-12-01T19:19:21.593Z,2.90
2018-12-01T19:21:51.505Z,2.30
2018-12-01T19:24:21.442Z,3.17
2018-12-01T19:26:51.511Z,2.70
2018-12-01T19:29:21.449Z,2.60
2018-12-01T19:31:51.299Z,2.60
2018-12-01T19:34:21.257Z,2.40
2018-12-01T19:36:51.268Z,2.83
2018-12-01T19:39:21.101Z,2.30
2018-12-01T19:41:51.071Z,2.70
2018-12-01T19:44:20.814Z,2.63
2018-12-01T19:46:50.872Z,2.57
2018-12-01T19:49:20.841Z,2.57
2018-12-01T19:51:50.779Z,2.60
2018-12-01T19:54:20.465Z,2.33
2018-12-01T19:56:50.372Z,2.37
2018-12-01T19:59:20.377Z,2.50
2018-12-01T20:01:50.259Z,2.40
2018-12-01T20:04:20.118Z,2.43
2018-12-01T20:06:49.929Z,2.40
2018-12-01T20:09:19.828Z,2.53
2018-12-01T20:11:49.675Z,2.27
2018-12-01T20:14:19.704Z,2.20
2018-12-01T20:16:53.700Z,2.23
2018-12-01T20:19:23.532Z,2.37
2018-12-01T20:21:53.370Z,2.47
2018-12-01T20:24:23.453Z,2.27
2018-12-01T20:26:53.292Z,2.40
2018-12-01T20:29:23.022Z,2.90
2018-12-01T20:31:53.028Z,2.50
2018-12-01T20:34:22.867Z,2.37
2018-12-01T20:36:56.745Z,1.93
2018-12-01T20:39:32.490Z,2.03
2018-12-01T20:42:02.365Z,2.20
2018-12-01T20:44:32.248Z,2.30
2018-12-01T20:47:02.166Z,2.20
2018-12-01T20:49:32.448Z,2.40
2018-12-01T20:52:02.392Z,2.30
2018-12-01T20:54:37.944Z,2.37
2018-12-01T20:57:18.123Z,2.47
2018-12-01T20:59:47.952Z,2.87
2018-12-01T21:02:17.932Z,2.77
2018-12-01T21:04:48.597Z,2.57
2018-12-01T21:07:18.710Z,2.30
2018-12-01T21:09:48.554Z,2.37
2018-12-01T21:12:18.710Z,2.27
2018-12-01T21:14:48.493Z,2.50
2018-12-01T21:17:19.181Z,1.70
2018-12-01T21:19:49.253Z,2.57
2018-12-01T21:22:19.065Z,2.50
2018-12-01T21:24:48.884Z,2.00
2018-12-01T21:27:18.659Z,2.03
2018-12-01T21:29:48.577Z,1.93
2018-12-01T21:32:18.338Z,2.47
2018-12-01T21:34:48.118Z,2.13
2018-12-01T21:37:17.935Z,1.80
2018-12-01T21:39:47.738Z,2.10
2018-12-01T21:42:17.468Z,2.70
2018-12-01T21:44:47.573Z,2.43
2018-12-01T21:47:17.320Z,2.10
2018-12-01T21:49:47.338Z,1.70
2018-12-01T21:52:17.897Z,2.30
2018-12-01T21:54:48.198Z,2.03
2018-12-01T21:57:17.981Z,2.17
2018-12-01T21:59:47.794Z,1.90
2018-12-01T22:02:17.708Z,1.77
2018-12-01T22:04:47.576Z,2.00
2018-12-01T22:07:17.922Z,1.80
2018-12-01T22:09:47.810Z,2.43
2018-12-01T22:12:17.524Z,1.90
2018-12-01T22:14:47.450Z,1.97
2018-12-01T22:17:17.416Z,2.00
2018-12-01T22:19:47.365Z,1.40
2018-12-01T22:22:17.336Z,1.80
2018-12-01T22:24:47.145Z,1.37
2018-12-01T22:27:16.918Z,1.60
2018-12-01T22:29:46.906Z,1.60
2018-12-01T22:32:17.432Z,1.30
2018-12-01T22:34:47.268Z,1.40
2018-12-01T22:37:18.631Z,1.80
2018-12-01T22:39:48.463Z,1.50
2018-12-01T22:42:18.334Z,1.47
2018-12-01T22:44:48.247Z,1.53
2018-12-01T22:47:18.040Z,1.23
2018-12-01T22:49:47.806Z,1.30
2018-12-01T22:52:17.761Z,1.30
2018-12-01T22:54:47.546Z,1.13
2018-12-01T22:57:17.612Z,1.20
2018-12-01T22:59:47.513Z,1.20
2018-12-01T23:02:17.606Z,1.30
2018-12-01T23:04:47.524Z,1.50
2018-12-01T23:07:17.344Z,1.40
2018-12-01T23:09:47.948Z,1.23
2018-12-01T23:12:17.827Z,1.40
2018-12-01T23:14:47.579Z,1.37
2018-12-01T23:17:17.614Z,1.30
2018-12-01T23:19:47.413Z,1.30
2018-12-01T23:22:17.386Z,1.23
2018-12-01T23:24:47.668Z,1.30
2018-12-01T23:27:17.583Z,1.07
2018-12-01T23:29:47.769Z,1.20
2018-12-01T23:32:17.772Z,1.50
2018-12-01T23:34:47.925Z,1.40
2018-12-01T23:37:17.710Z,1.47
2018-12-01T23:39:47.958Z,1.30
2018-12-01T23:42:17.668Z,1.33
2018-12-01T23:44:47.574Z,1.20
2018-12-01T23:47:17.310Z,1.27
2018-12-01T23:49:47.535Z,1.30
2018-12-01T23:52:17.367Z,1.13
2018-12-01T23:54:47.188Z,1.50
2018-12-01T23:57:17.209Z,1.40
2018-12-01T23:59:47.176Z,1.00
